Time;durP1;ratioP1;P1;durP2;ratioP2;P2;SDS_P1;SDS_P2;PMS_P1;PMS_P2;Temp;Humidity;BMP_temperature;BMP_pressure;BME280_temperature;BME280_humidity;BME280_pressure;Samples;Min_cycle;Max_cycle;Signal;HPM_P1;HPM_P2
2022/03/24 00:02:29;;;;;;;22.83;9.83;;;;;;;1.22;90.45;97762.91;10375903;28;20213;-61
2022/03/24 00:07:29;;;;;;;27.47;13.50;;;;;;;1.17;90.84;97757.97;10376167;28;20587;-61
2022/03/24 00:12:30;;;;;;;34.27;17.67;;;;;;;1.06;92.04;97755.06;10376370;28;20712;-58
2022/03/24 00:17:31;;;;;;;32.97;18.80;;;;;;;1.02;92.26;97746.63;10376015;28;20822;-59
2022/03/24 00:22:31;;;;;;;26.20;14.17;;;;;;;1.05;92.18;97738.72;10374052;28;20242;-59
2022/03/24 00:27:32;;;;;;;28.47;14.17;;;;;;;1.08;91.56;97734.34;10375505;28;20687;-59
2022/03/24 00:32:32;;;;;;;31.90;18.53;;;;;;;0.94;92.30;97735.84;10373389;28;20774;-56
2022/03/24 00:37:32;;;;;;;29.90;15.80;;;;;;;0.95;92.77;97726.34;10357464;28;20194;-56
2022/03/24 00:42:36;;;;;;;27.80;14.03;;;;;;;0.90;92.54;97726.56;10375055;28;20242;-57
2022/03/24 00:47:37;;;;;;;26.63;13.20;;;;;;;0.92;92.19;97714.44;10373165;28;20205;-55
2022/03/24 00:52:41;;;;;;;30.30;14.97;;;;;;;0.87;92.34;97716.38;10374339;28;20213;-56
2022/03/24 00:57:43;;;;;;;21.53;13.07;;;;;;;0.85;92.52;97723.34;10374473;28;20200;-55
2022/03/24 01:02:44;;;;;;;34.63;16.10;;;;;;;0.82;92.47;97713.19;10374029;28;20236;-56
2022/03/24 01:07:46;;;;;;;27.80;13.37;;;;;;;0.66;93.61;97729.38;10373957;28;20227;-55
2022/03/24 01:12:48;;;;;;;31.63;16.50;;;;;;;0.76;93.65;97710.88;10356149;28;20224;-57
2022/03/24 01:17:49;;;;;;;30.30;16.47;;;;;;;0.73;93.03;97713.59;10372905;28;20678;-55
2022/03/24 01:22:49;;;;;;;31.07;16.30;;;;;;;0.71;92.95;97703.38;10373183;28;20279;-56
2022/03/24 01:27:51;;;;;;;33.73;16.47;;;;;;;0.64;94.02;97702.78;10355164;28;20217;-57
2022/03/24 01:32:51;;;;;;;41.03;19.03;;;;;;;0.66;93.72;97701.00;10372721;28;20213;-57
2022/03/24 01:37:52;;;;;;;33.57;16.43;;;;;;;0.63;93.51;97693.41;10354915;28;20197;-59
2022/03/24 01:42:52;;;;;;;44.13;20.60;;;;;;;0.69;93.26;97695.69;10354787;28;20224;-60
2022/03/24 01:47:53;;;;;;;41.73;20.53;;;;;;;0.66;92.99;97688.09;10372204;28;20215;-61
2022/03/24 01:52:53;;;;;;;26.63;15.43;;;;;;;0.64;93.07;97679.59;10372332;28;20209;-56
2022/03/24 01:57:53;;;;;;;27.40;15.27;;;;;;;0.58;93.68;97689.34;10372025;28;20181;-53
2022/03/24 02:02:54;;;;;;;34.37;17.60;;;;;;;0.67;92.97;97686.34;10353064;28;20215;-56
2022/03/24 02:07:54;;;;;;;31.33;17.87;;;;;;;0.59;93.39;97680.72;10353560;28;20220;-56
2022/03/24 02:12:56;;;;;;;33.70;15.43;;;;;;;0.55;93.77;97687.75;10353710;28;20289;-55
2022/03/24 02:17:57;;;;;;;28.23;16.07;;;;;;;0.42;94.85;97681.50;10353805;28;20236;-56
2022/03/24 02:22:57;;;;;;;28.57;17.40;;;;;;;0.47;94.36;97675.19;10353389;28;20586;-59
2022/03/24 02:28:01;;;;;;;30.30;17.37;;;;;;;0.48;94.41;97665.75;10370894;28;20279;-57
2022/03/24 02:33:01;;;;;;;28.30;15.60;;;;;;;0.50;93.87;97677.63;10370934;28;20205;-56
2022/03/24 02:38:02;;;;;;;31.40;16.33;;;;;;;0.43;94.63;97659.94;10370328;28;20193;-54
2022/03/24 02:43:02;;;;;;;28.73;17.00;;;;;;;0.49;94.31;97651.94;10370517;28;20208;-53
2022/03/24 02:48:04;;;;;;;31.20;19.30;;;;;;;0.48;94.24;97655.44;10370017;28;20320;-58
2022/03/24 02:53:05;;;;;;;36.43;17.23;;;;;;;0.51;94.30;97657.88;10370240;28;20279;-56
2022/03/24 02:58:06;;;;;;;25.57;12.70;;;;;;;0.47;93.81;97664.06;10370351;28;20199;-57
2022/03/24 03:03:06;;;;;;;30.63;17.20;;;;;;;0.50;93.63;97659.59;10369855;28;20227;-56
2022/03/24 03:08:07;;;;;;;25.17;15.00;;;;;;;0.46;94.14;97667.53;10370793;28;20814;-55
2022/03/24 03:13:08;;;;;;;29.87;17.20;;;;;;;0.45;94.18;97679.59;10377699;28;20241;-56
2022/03/24 03:18:09;;;;;;;25.40;12.63;;;;;;;0.48;93.39;97670.91;10378189;28;20629;-54
2022/03/24 03:23:09;;;;;;;31.73;18.53;;;;;;;0.37;93.45;97683.41;10377890;28;21084;-58
2022/03/24 03:28:10;;;;;;;32.20;14.10;;;;;;;0.31;94.75;97681.97;10377304;28;20216;-56
2022/03/24 03:33:10;;;;;;;30.90;14.80;;;;;;;0.34;94.22;97681.84;10377629;28;20212;-56
2022/03/24 03:38:11;;;;;;;15.60;7.70;;;;;;;0.17;95.20;97695.47;10377179;28;20219;-58
2022/03/24 03:43:14;;;;;;;25.67;12.77;;;;;;;0.20;95.89;97687.63;10377052;28;20209;-57
2022/03/24 03:48:14;;;;;;;25.33;13.30;;;;;;;0.20;95.93;97684.19;10376785;28;20259;-57
2022/03/24 03:53:15;;;;;;;28.17;14.07;;;;;;;0.23;95.53;97679.75;10376782;28;20287;-56
2022/03/24 03:58:15;;;;;;;28.93;15.47;;;;;;;0.17;96.04;97677.44;10376572;28;20197;-56
2022/03/24 04:03:16;;;;;;;29.87;15.13;;;;;;;0.22;96.14;97679.81;10375716;28;20311;-57
2022/03/24 04:08:16;;;;;;;20.23;10.90;;;;;;;0.14;96.20;97682.72;10375946;28;20717;-56
2022/03/24 04:13:18;;;;;;;27.27;12.53;;;;;;;0.03;96.74;97685.78;10375419;28;20228;-53
2022/03/24 04:18:19;;;;;;;34.10;13.53;;;;;;;0.22;96.69;97688.38;10375802;28;20189;-55
2022/03/24 04:23:19;;;;;;;28.63;13.50;;;;;;;0.18;95.77;97691.97;10375534;28;20855;-55
2022/03/24 04:28:20;;;;;;;22.33;12.33;;;;;;;0.03;96.47;97692.66;10375102;28;20295;-56
2022/03/24 04:33:20;;;;;;;31.90;17.50;;;;;;;-0.07;97.97;97689.66;10375260;28;20221;-56
2022/03/24 04:38:21;;;;;;;25.03;11.90;;;;;;;-0.11;99.04;97699.22;10375122;28;20185;-56
2022/03/24 04:43:21;;;;;;;25.67;13.33;;;;;;;-0.13;99.34;97693.31;10374875;28;20209;-59
2022/03/24 04:48:21;;;;;;;25.83;12.77;;;;;;;-0.11;100.00;97696.66;10374339;28;20248;-57
2022/03/24 04:53:22;;;;;;;26.10;14.13;;;;;;;-0.18;100.00;97700.41;10374603;28;20216;-56
2022/03/24 04:58:22;;;;;;;26.13;14.30;;;;;;;-0.07;100.00;97684.50;10374486;28;20655;-55
2022/03/24 05:03:22;;;;;;;25.53;13.20;;;;;;;-0.03;99.75;97689.44;10374051;28;20581;-54
2022/03/24 05:08:23;;;;;;;31.80;16.20;;;;;;;-0.13;99.50;97703.63;10374427;28;20233;-60
2022/03/24 05:13:23;;;;;;;30.63;14.83;;;;;;;-0.24;100.00;97708.41;10373754;28;20259;-58
2022/03/24 05:18:26;;;;;;;30.37;15.07;;;;;;;-0.08;100.00;97696.53;10372505;28;20614;-59
2022/03/24 05:23:27;;;;;;;17.17;9.17;;;;;;;-0.12;100.00;97692.44;10411236;22;20240;-52
2022/03/24 05:28:28;;;;;;;30.40;15.80;;;;;;;-0.03;100.00;97693.75;10454273;28;20216;-55
2022/03/24 05:33:28;;;;;;;35.67;17.93;;;;;;;0.05;99.59;97696.03;10454710;28;20218;-54
2022/03/24 05:38:28;;;;;;;25.47;14.10;;;;;;;0.04;99.08;97694.34;10454988;28;20231;-55
2022/03/24 05:43:29;;;;;;;32.03;17.07;;;;;;;0.08;99.05;97683.00;10454975;28;20230;-51
2022/03/24 05:48:29;;;;;;;28.67;17.33;;;;;;;0.15;98.60;97694.69;10453930;28;20220;-54
2022/03/24 05:53:49;;;;;;;31.73;16.43;;;;;;;0.28;97.56;97693.25;10452200;28;20211;-52
2022/03/24 05:58:50;;;;;;;21.53;12.27;;;;;;;0.41;96.67;97688.38;10454051;28;20192;-54
2022/03/24 06:03:51;;;;;;;28.13;14.07;;;;;;;0.73;95.18;97690.41;10453514;28;20300;-52
2022/03/24 06:08:54;;;;;;;34.10;16.40;;;;;;;1.18;92.16;97682.22;10453957;28;20209;-55
2022/03/24 06:13:55;;;;;;;30.30;16.63;;;;;;;1.67;88.40;97672.97;10453553;28;20628;-52
2022/03/24 06:18:55;;;;;;;31.93;16.53;;;;;;;1.62;88.62;97675.78;10453577;28;20206;-52
2022/03/24 06:23:56;;;;;;;37.43;18.03;;;;;;;2.13;86.17;97671.44;10453046;28;20289;-54
2022/03/24 06:28:56;;;;;;;53.63;22.43;;;;;;;2.46;82.75;97651.63;10452732;28;20306;-52
2022/03/24 06:33:57;;;;;;;53.13;24.87;;;;;;;2.98;81.05;97647.94;10452311;28;20212;-58
2022/03/24 06:38:57;;;;;;;38.80;16.53;;;;;;;3.32;79.29;97641.69;10452750;28;20536;-53
2022/03/24 06:43:59;;;;;;;41.97;17.03;;;;;;;3.65;77.99;97637.22;10451598;28;20249;-53
2022/03/24 06:49:00;;;;;;;36.77;13.53;;;;;;;3.88;76.63;97622.91;10452156;28;20219;-58
2022/03/24 06:54:01;;;;;;;52.63;21.03;;;;;;;4.19;76.56;97634.81;10452133;28;20214;-57
2022/03/24 06:59:02;;;;;;;46.97;18.93;;;;;;;4.69;74.39;97605.84;10452341;28;20212;-58
2022/03/24 07:04:02;;;;;;;63.07;21.40;;;;;;;5.00;74.63;97615.91;10452230;28;20204;-54
2022/03/24 07:09:03;;;;;;;47.73;20.37;;;;;;;5.39;73.25;97603.03;10451662;28;20721;-54
2022/03/24 07:14:03;;;;;;;33.77;18.13;;;;;;;5.82;71.46;97586.28;10451844;28;20243;-54
2022/03/24 07:19:06;;;;;;;26.80;16.50;;;;;;;6.65;69.35;97564.06;10452036;28;20183;-58
2022/03/24 07:24:06;;;;;;;30.97;16.50;;;;;;;7.24;68.37;97561.44;10451778;28;20266;-57
2022/03/24 07:29:07;;;;;;;30.20;17.10;;;;;;;7.64;66.60;97548.00;10451353;28;20240;-59
2022/03/24 07:34:07;;;;;;;32.40;17.17;;;;;;;8.29;64.88;97537.75;10450944;28;20231;-59
2022/03/24 07:39:07;;;;;;;25.87;16.13;;;;;;;9.09;61.40;97486.06;10451386;28;20187;-59
2022/03/24 07:44:08;;;;;;;27.77;17.10;;;;;;;10.15;58.65;97458.69;10432222;28;20255;-60
2022/03/24 07:49:09;;;;;;;30.20;17.83;;;;;;;10.23;57.42;97450.16;10451429;28;20228;-58
2022/03/24 07:54:10;;;;;;;29.43;18.47;;;;;;;10.75;54.95;97428.97;10448262;28;20212;-60
2022/03/24 07:59:11;;;;;;;33.67;18.03;;;;;;;12.12;51.39;97371.50;10454416;28;20196;-57
2022/03/24 08:04:11;;;;;;;30.63;18.20;;;;;;;12.52;49.23;97331.75;10445214;28;20219;-55
2022/03/24 08:09:12;;;;;;;33.22;20.75;;;;;;;13.84;47.14;97323.53;10433149;28;20595;-58
2022/03/24 08:14:12;;;;;;;36.83;21.77;;;;;;;15.45;41.61;97224.28;10452068;28;20555;-57
2022/03/24 08:19:14;;;;;;;36.53;22.23;;;;;;;15.11;43.60;97296.72;10447369;28;20219;-57
2022/03/24 08:24:15;;;;;;;33.35;22.58;;;;;;;16.12;41.55;97281.00;10450757;28;20232;-58
2022/03/24 08:29:15;;;;;;;35.72;23.80;;;;;;;16.85;40.91;97290.06;10451425;28;20590;-58
2022/03/24 08:34:15;;;;;;;37.63;23.73;;;;;;;15.86;42.78;97332.38;10451363;28;20204;-55
2022/03/24 08:39:16;;;;;;;38.53;24.02;;;;;;;16.70;42.03;97344.78;10452297;28;20192;-56
2022/03/24 08:44:16;;;;;;;39.80;24.27;;;;;;;16.74;40.26;97288.69;10433568;28;20306;-57
2022/03/24 08:49:18;;;;;;;34.85;24.33;;;;;;;17.47;37.50;97235.03;10451263;28;20223;-60
2022/03/24 08:54:18;;;;;;;34.03;22.90;;;;;;;17.39;39.68;97311.97;10451000;28;20231;-58
2022/03/24 08:59:19;;;;;;;33.17;24.10;;;;;;;17.24;38.70;97277.56;10451629;28;20184;-54
2022/03/24 09:04:20;;;;;;;32.47;20.85;;;;;;;18.99;34.40;97199.31;10450141;28;20226;-61
2022/03/24 09:09:22;;;;;;;31.15;22.08;;;;;;;19.23;33.53;97184.72;10438968;28;20326;-59
2022/03/24 09:14:22;;;;;;;33.65;21.40;;;;;;;18.69;35.39;97239.34;10444127;28;20216;-55
2022/03/24 09:19:23;;;;;;;38.83;24.33;;;;;;;19.21;33.14;97185.91;10431824;28;20192;-59
2022/03/24 09:24:23;;;;;;;28.95;17.50;;;;;;;19.33;32.34;97176.34;10448030;28;20243;-57
2022/03/24 09:29:24;;;;;;;30.15;17.67;;;;;;;16.88;35.89;97215.63;10451597;28;20303;-56
2022/03/24 09:34:25;;;;;;;28.40;18.40;;;;;;;18.13;34.63;97234.06;10450252;28;20226;-58
2022/03/24 09:39:25;;;;;;;32.60;20.05;;;;;;;18.71;33.64;97213.47;10450179;28;20199;-59
2022/03/24 09:44:26;;;;;;;35.15;19.50;;;;;;;19.52;32.13;97196.00;10449330;28;20294;-60
2022/03/24 09:49:27;;;;;;;23.38;15.75;;;;;;;18.40;33.09;97187.34;10448754;28;20639;-59
2022/03/24 09:54:27;;;;;;;28.08;17.20;;;;;;;17.47;33.59;97188.19;10448600;28;20204;-58
2022/03/24 09:59:28;;;;;;;25.58;16.48;;;;;;;17.64;34.09;97214.41;10449523;28;20278;-59
2022/03/24 10:04:45;;;;;;;26.05;16.25;;;;;;;18.18;32.45;97183.94;10448807;28;20220;-60
2022/03/24 10:09:47;;;;;;;27.40;17.77;;;;;;;18.31;32.32;97183.19;10448721;28;20878;-61
2022/03/24 10:15:06;;;;;;;26.05;16.33;;;;;;;18.84;31.55;97175.53;10449165;28;20276;-61
2022/03/24 10:20:12;;;;;;;25.00;15.60;;;;;;;17.89;31.44;97137.22;10447521;28;20219;-62
2022/03/24 10:25:21;;;;;;;29.30;17.23;;;;;;;18.41;32.15;97194.28;10447866;28;20282;-57
2022/03/24 10:30:21;;;;;;;28.73;16.90;;;;;;;18.68;31.48;97173.19;10447368;28;20706;-59
2022/03/24 10:35:22;;;;;;;24.40;15.50;;;;;;;19.02;28.68;97076.78;10447111;28;20294;-60
2022/03/24 10:40:22;;;;;;;25.83;16.60;;;;;;;19.68;29.94;97154.94;10448180;28;20198;-59
2022/03/24 10:45:23;;;;;;;22.67;16.63;;;;;;;19.51;29.11;97119.13;10447638;28;20207;-61
2022/03/24 10:50:31;;;;;;;20.73;15.80;;;;;;;18.82;30.58;97145.72;10447008;28;20269;-59
2022/03/24 10:55:43;;;;;;;27.80;16.80;;;;;;;19.71;29.20;97130.59;10447002;28;20218;-56
2022/03/24 11:00:46;;;;;;;21.92;16.70;;;;;;;20.72;28.34;97135.78;10446537;28;20211;-62
2022/03/24 11:05:46;;;;;;;20.85;15.68;;;;;;;21.61;25.82;97062.13;10447165;28;20698;-64
2022/03/24 11:10:48;;;;;;;24.02;15.30;;;;;;;20.61;28.63;97143.41;10447086;28;20357;-63
2022/03/24 11:15:50;;;;;;;25.77;16.55;;;;;;;19.63;29.40;97127.31;10443499;28;20277;-60
2022/03/24 11:20:51;;;;;;;22.35;16.85;;;;;;;19.82;28.94;97107.94;10444914;28;20666;-62
2022/03/24 11:25:53;;;;;;;24.98;17.75;;;;;;;20.49;29.46;97175.16;10440070;22;20232;-60
2022/03/24 11:30:53;;;;;;;24.80;16.52;;;;;;;21.02;28.39;97144.88;10362024;28;20217;-60
2022/03/24 11:35:54;;;;;;;26.88;18.00;;;;;;;21.92;27.91;97161.78;10393831;28;21551;-62
2022/03/24 11:41:00;;;;;;;29.13;17.98;;;;;;;20.63;28.46;97121.91;10401339;28;20219;-61
2022/03/24 11:46:09;;;;;;;24.58;17.17;;;;;;;19.38;30.73;97165.91;10412569;28;20209;-62
2022/03/24 11:51:21;;;;;;;30.27;19.05;;;;;;;19.75;29.02;97115.91;10413671;28;20220;-64
2022/03/24 11:56:21;;;;;;;27.00;17.77;;;;;;;20.69;29.23;97153.03;10411641;28;20290;-63
2022/03/24 12:01:23;;;;;;;29.30;19.95;;;;;;;23.13;25.54;97095.38;10412573;28;20189;-63
2022/03/24 12:06:42;;;;;;;30.30;20.17;;;;;;;21.50;26.57;97062.81;10412514;28;20216;-64
2022/03/24 12:11:47;;;;;;;26.58;19.77;;;;;;;21.09;28.65;97131.53;10402979;28;20560;-64
2022/03/24 12:16:51;;;;;;;27.48;20.02;;;;;;;22.05;26.91;97104.81;10411643;28;20691;-64
2022/03/24 12:21:52;;;;;;;31.92;20.27;;;;;;;19.85;30.37;97142.09;10411488;28;20200;-62
2022/03/24 12:26:54;;;;;;;34.53;20.40;;;;;;;20.59;28.87;97116.16;10392941;28;20287;-64
2022/03/24 12:32:06;;;;;;;31.52;20.88;;;;;;;20.13;29.70;97125.09;10411125;28;20200;-64
2022/03/24 12:37:07;;;;;;;29.08;19.90;;;;;;;21.38;27.45;97076.84;10411344;28;20285;-63
2022/03/24 12:42:13;;;;;;;29.95;21.88;;;;;;;22.17;26.91;97097.69;10392024;28;20196;-61
2022/03/24 12:47:33;;;;;;;35.60;20.77;;;;;;;22.00;26.29;97046.78;10410731;28;20277;-60
2022/03/24 12:52:50;;;;;;;26.60;18.95;;;;;;;23.22;26.23;97100.41;10411189;28;20265;-62
2022/03/24 12:57:58;;;;;;;29.73;21.17;;;;;;;23.63;26.54;97109.44;10409933;28;20212;-62
2022/03/24 13:03:01;;;;;;;31.92;22.83;;;;;;;21.64;27.68;97068.84;10409825;28;20189;-62
2022/03/24 13:08:05;;;;;;;32.75;21.75;;;;;;;22.37;27.49;97094.84;10388904;28;20221;-63
2022/03/24 13:13:05;;;;;;;34.53;22.25;;;;;;;21.75;26.86;97038.03;10397765;28;20200;-61
2022/03/24 13:18:08;;;;;;;31.00;21.50;;;;;;;21.69;28.69;97115.19;10409860;28;20209;-61
2022/03/24 13:23:10;;;;;;;29.92;21.58;;;;;;;23.35;25.56;97052.06;10409222;28;20287;-61
2022/03/24 13:28:11;;;;;;;29.23;22.00;;;;;;;22.42;27.64;97103.03;10409193;28;20268;-61
2022/03/24 13:33:14;;;;;;;32.83;22.27;;;;;;;22.55;26.51;97055.84;10407839;28;20623;-61
2022/03/24 13:38:21;;;;;;;27.13;21.02;;;;;;;23.30;26.12;97055.44;10408900;28;20603;-61
2022/03/24 13:43:22;;;;;;;34.50;22.83;;;;;;;24.36;23.49;96994.91;10409012;28;20223;-60
2022/03/24 13:48:23;;;;;;;30.35;22.10;;;;;;;24.29;24.07;97012.97;10408387;28;20698;-60
2022/03/24 13:53:28;;;;;;;31.08;22.42;;;;;;;24.81;23.97;97030.88;10408321;28;20192;-62
2022/03/24 13:58:28;;;;;;;28.00;20.67;;;;;;;24.45;23.60;96981.97;10408316;28;20702;-61
2022/03/24 14:03:29;;;;;;;33.67;21.35;;;;;;;24.01;25.33;97031.44;10406730;28;20247;-60
2022/03/24 14:08:31;;;;;;;32.40;22.33;;;;;;;25.54;23.18;97005.03;10408084;28;20232;-62
2022/03/24 14:14:08;;;;;;;33.80;22.70;;;;;;;24.34;23.63;96959.53;10407436;28;20176;-60
2022/03/24 14:19:13;;;;;;;28.83;22.25;;;;;;;25.19;23.11;96998.06;10403348;28;20287;-60
2022/03/24 14:24:27;;;;;;;32.65;21.55;;;;;;;23.22;25.14;96978.25;10406852;28;20211;-62
2022/03/24 14:29:27;;;;;;;30.23;21.50;;;;;;;24.82;23.78;96992.31;10406507;28;20574;-60
2022/03/24 14:34:28;;;;;;;30.83;22.33;;;;;;;23.38;25.30;96975.94;10405228;28;20208;-60
2022/03/24 14:39:28;;;;;;;32.67;22.50;;;;;;;24.41;23.99;96978.97;10407198;28;20196;-60
2022/03/24 14:44:28;;;;;;;31.02;21.42;;;;;;;25.67;23.77;97032.59;10406187;28;20379;-61
2022/03/24 14:49:29;;;;;;;32.03;23.13;;;;;;;25.50;23.47;96998.56;10406277;28;20220;-62
2022/03/24 14:54:29;;;;;;;29.43;21.97;;;;;;;26.66;21.95;96975.38;10402359;28;20220;-62
2022/03/24 14:59:30;;;;;;;30.20;22.52;;;;;;;26.67;22.42;97001.16;10392320;28;20436;-61
2022/03/24 15:04:30;;;;;;;28.90;21.98;;;;;;;28.20;21.10;97002.63;10404855;28;20227;-61
2022/03/24 15:09:30;;;;;;;30.63;22.43;;;;;;;28.46;21.20;97022.38;10405190;28;20646;-61
2022/03/24 15:19:50;;;;;;;28.73;22.95;;;;;;;26.97;21.61;96940.69;10406543;28;20427;-62
2022/03/24 15:24:51;;;;;;;31.52;24.45;;;;;;;25.80;22.86;96925.75;10405360;28;20740;-60
2022/03/24 15:29:51;;;;;;;33.75;24.92;;;;;;;25.04;24.22;96958.41;10406252;28;20232;-62
2022/03/24 15:34:51;;;;;;;39.57;27.70;;;;;;;26.93;22.79;97001.41;10405160;28;20219;-60
2022/03/24 15:39:52;;;;;;;28.17;21.80;;;;;;;27.52;21.83;96984.44;10405007;28;20447;-60
2022/03/24 15:44:53;;;;;;;38.77;24.80;;;;;;;25.81;23.18;96948.81;10405087;28;20575;-59
2022/03/24 15:49:54;;;;;;;31.20;22.77;;;;;;;25.97;23.25;96976.69;10404417;28;20475;-58
2022/03/24 15:54:54;;;;;;;30.60;22.00;;;;;;;24.77;24.55;96970.81;10405751;28;20307;-60
2022/03/24 15:59:54;;;;;;;36.47;22.55;;;;;;;24.32;24.28;96958.94;10404429;28;20971;-61
2022/03/24 16:04:55;;;;;;;32.85;22.23;;;;;;;24.53;24.94;96987.78;10403021;28;20710;-59
2022/03/24 16:09:55;;;;;;;31.63;21.98;;;;;;;25.53;23.70;96995.38;10402953;28;20994;-60
2022/03/24 16:14:55;;;;;;;36.20;22.90;;;;;;;22.68;26.65;96972.91;10405479;28;20219;-59
2022/03/24 16:19:56;;;;;;;31.10;22.50;;;;;;;22.78;26.27;96991.84;10412234;28;20180;-58
2022/03/24 16:24:56;;;;;;;41.75;28.33;;;;;;;19.62;29.88;96988.31;10411027;28;20324;-60
2022/03/24 16:29:57;;;;;;;32.65;22.75;;;;;;;16.53;33.06;97009.03;10412295;28;20221;-60
2022/03/24 16:34:57;;;;;;;58.33;34.88;;;;;;;14.95;35.53;97071.53;10411457;28;20266;-60
2022/03/24 16:39:57;;;;;;;74.07;39.83;;;;;;;13.84;36.95;97104.09;10411678;28;20184;-59
2022/03/24 16:44:59;;;;;;;52.92;29.77;;;;;;;13.95;37.60;97153.81;10397413;28;20213;-61
2022/03/24 16:50:00;;;;;;;37.65;23.98;;;;;;;13.13;39.01;97185.31;10384720;28;20221;-58
2022/03/24 16:55:00;;;;;;;43.53;25.95;;;;;;;12.93;39.63;97211.06;10413525;28;20205;-59
2022/03/24 17:00:01;;;;;;;52.38;27.77;;;;;;;12.64;40.01;97241.16;10388085;28;20284;-58
2022/03/24 17:05:01;;;;;;;38.80;23.73;;;;;;;12.53;41.75;97291.38;10395149;28;20205;-56
2022/03/24 17:10:02;;;;;;;39.30;21.33;;;;;;;11.92;43.12;97322.72;10380716;28;20300;-59
2022/03/24 17:15:03;;;;;;;37.42;24.38;;;;;;;11.33;44.89;97351.09;10373987;28;20589;-57
2022/03/24 17:20:04;;;;;;;39.05;22.35;;;;;;;10.08;48.21;97433.19;10373789;28;20566;-59
2022/03/24 17:25:05;;;;;;;35.33;22.50;;;;;;;8.66;50.66;97477.38;10372854;28;20241;-59
2022/03/24 17:30:12;;;;;;;53.40;35.10;;;;;;;8.30;52.25;97499.44;10429319;22;20244;-58
2022/03/24 17:35:15;;;;;;;61.27;29.90;;;;;;;7.57;54.92;97553.81;10413674;28;20193;-59
2022/03/24 17:40:17;;;;;;;33.53;19.83;;;;;;;7.47;56.10;97564.94;10413888;28;20304;-60
2022/03/24 17:45:18;;;;;;;35.90;18.97;;;;;;;7.34;57.04;97579.00;10412095;28;20220;-56
2022/03/24 17:50:19;;;;;;;39.60;21.10;;;;;;;6.89;60.85;97632.59;10412156;28;20670;-59
2022/03/24 17:55:21;;;;;;;33.77;20.13;;;;;;;6.71;60.77;97613.09;10413605;28;20205;-52
2022/03/24 18:00:21;;;;;;;35.77;19.87;;;;;;;6.62;62.29;97617.19;10410459;28;20243;-53
2022/03/24 18:05:22;;;;;;;34.40;19.63;;;;;;;6.23;64.30;97624.22;10412288;28;20275;-51
2022/03/24 18:10:22;;;;;;;35.77;19.77;;;;;;;6.19;64.60;97622.81;10410610;28;20220;-58
2022/03/24 18:15:22;;;;;;;32.13;15.93;;;;;;;5.96;65.68;97626.97;10412207;28;20681;-57
2022/03/24 18:20:23;;;;;;;30.50;18.27;;;;;;;5.84;66.25;97616.44;10409418;28;20216;-59
2022/03/24 18:25:24;;;;;;;63.37;29.77;;;;;;;5.66;66.56;97638.50;10410248;28;20251;-57
2022/03/24 18:30:24;;;;;;;60.27;30.40;;;;;;;5.49;67.25;97640.44;10410852;28;20644;-58
2022/03/24 18:35:25;;;;;;;86.40;47.33;;;;;;;5.30;68.32;97653.00;10410684;28;20196;-53
2022/03/24 18:40:25;;;;;;;40.97;23.03;;;;;;;5.18;68.92;97647.66;10410567;28;20212;-58
2022/03/24 18:45:26;;;;;;;35.07;20.60;;;;;;;5.00;69.55;97652.25;10410513;28;20215;-59
2022/03/24 18:50:26;;;;;;;43.20;24.40;;;;;;;4.78;70.11;97649.38;10408959;28;20216;-58
2022/03/24 18:55:27;;;;;;;43.00;20.57;;;;;;;4.71;70.68;97666.25;10410062;28;20192;-58
2022/03/24 19:00:27;;;;;;;33.80;19.33;;;;;;;4.56;71.53;97668.88;10409974;28;20208;-58
2022/03/24 19:05:28;;;;;;;30.70;17.20;;;;;;;4.39;72.30;97674.28;10410073;28;20192;-56
2022/03/24 19:10:28;;;;;;;38.73;21.57;;;;;;;4.21;73.22;97669.31;10409683;28;20771;-51
2022/03/24 19:15:29;;;;;;;39.63;21.17;;;;;;;4.09;73.40;97667.44;10409971;28;20188;-57
2022/03/24 19:20:29;;;;;;;40.70;22.03;;;;;;;3.98;74.04;97673.28;10409451;28;20219;-55
2022/03/24 19:25:29;;;;;;;35.57;18.67;;;;;;;3.87;74.37;97679.06;10409501;28;20188;-56
2022/03/24 19:30:30;;;;;;;35.90;19.17;;;;;;;3.80;75.08;97676.94;10408911;28;20676;-52
2022/03/24 19:35:30;;;;;;;34.57;21.20;;;;;;;3.67;75.53;97659.50;10421594;28;20670;-57
2022/03/24 19:40:31;;;;;;;35.83;20.03;;;;;;;3.51;75.65;97671.72;10408327;28;20212;-54
2022/03/24 19:45:32;;;;;;;31.17;15.23;;;;;;;3.36;76.86;97678.59;10408754;28;20193;-55
2022/03/24 19:50:32;;;;;;;38.47;19.40;;;;;;;3.26;77.76;97672.28;10410235;28;20310;-55
2022/03/24 19:55:33;;;;;;;33.97;17.53;;;;;;;3.22;77.76;97666.44;10415553;28;20633;-54
2022/03/24 20:00:34;;;;;;;32.97;18.10;;;;;;;3.10;78.33;97672.31;10414770;28;20243;-51
2022/03/24 20:05:34;;;;;;;40.43;22.33;;;;;;;2.93;78.79;97663.72;10415783;28;20189;-52
2022/03/24 20:10:36;;;;;;;40.60;19.70;;;;;;;2.93;79.43;97668.91;10415671;28;20612;-53
2022/03/24 20:15:36;;;;;;;37.37;19.03;;;;;;;2.82;79.66;97664.31;10416781;28;20243;-53
2022/03/24 20:20:36;;;;;;;27.70;12.20;;;;;;;2.74;80.49;97666.50;10415908;28;20213;-52
2022/03/24 20:25:37;;;;;;;38.73;20.07;;;;;;;2.63;80.95;97663.66;10414923;28;20654;-51
2022/03/24 20:30:37;;;;;;;38.60;20.27;;;;;;;2.55;81.66;97661.47;10413199;28;20235;-54
2022/03/24 20:35:38;;;;;;;37.53;20.63;;;;;;;2.45;82.30;97678.41;10415376;28;20270;-52
2022/03/24 20:40:38;;;;;;;35.37;17.70;;;;;;;2.44;82.58;97674.16;10415099;28;20220;-52
2022/03/24 20:45:40;;;;;;;42.77;19.93;;;;;;;2.31;83.30;97672.25;10414508;28;20701;-54
2022/03/24 20:50:42;;;;;;;32.77;16.70;;;;;;;2.29;83.51;97670.63;10413729;28;20257;-53
2022/03/24 20:55:42;;;;;;;36.30;18.67;;;;;;;2.24;84.06;97677.81;10414076;28;20188;-51
2022/03/24 21:00:43;;;;;;;44.37;20.30;;;;;;;2.17;84.54;97679.03;10414551;28;20199;-55
2022/03/24 21:05:43;;;;;;;32.70;16.30;;;;;;;2.10;85.31;97676.78;10413046;28;20563;-55
2022/03/24 21:10:44;;;;;;;37.80;20.27;;;;;;;1.91;86.09;97694.13;10414085;28;20216;-54
2022/03/24 21:15:44;;;;;;;37.03;19.60;;;;;;;1.79;87.58;97687.84;10413451;28;20202;-53
2022/03/24 21:20:44;;;;;;;38.43;19.47;;;;;;;1.70;88.27;97683.13;10412828;28;20202;-57
2022/03/24 21:25:45;;;;;;;39.83;19.77;;;;;;;1.62;88.89;97686.09;10414315;28;20195;-53
2022/03/24 21:30:45;;;;;;;42.97;21.40;;;;;;;1.59;89.45;97675.94;10413038;28;20235;-52
2022/03/24 21:35:46;;;;;;;29.70;14.20;;;;;;;1.63;89.66;97682.63;10413884;28;20291;-54
2022/03/24 21:40:46;;;;;;;37.83;20.13;;;;;;;1.58;89.58;97675.09;10413267;28;20189;-52
2022/03/24 21:45:48;;;;;;;36.73;20.27;;;;;;;1.50;89.98;97676.38;10413095;28;20193;-56
2022/03/24 21:50:49;;;;;;;38.73;18.10;;;;;;;1.50;90.60;97676.38;10412317;28;20367;-56
2022/03/24 21:55:49;;;;;;;38.50;19.87;;;;;;;1.40;91.24;97684.59;10412469;28;20734;-52
2022/03/24 22:00:49;;;;;;;37.17;19.50;;;;;;;1.31;92.25;97676.47;10413049;28;20678;-52
2022/03/24 22:05:50;;;;;;;39.83;20.90;;;;;;;1.33;91.72;97685.81;10412359;28;20663;-54
2022/03/24 22:10:50;;;;;;;32.27;14.73;;;;;;;1.29;92.41;97689.44;10412242;28;20693;-56
2022/03/24 22:15:51;;;;;;;35.80;17.53;;;;;;;1.30;92.44;97692.88;10411958;28;20591;-56
2022/03/24 22:20:51;;;;;;;24.40;12.70;;;;;;;1.18;93.21;97689.13;10412019;28;20187;-54
2022/03/24 22:25:51;;;;;;;38.47;20.27;;;;;;;1.03;94.20;97680.38;10411857;28;20207;-55
2022/03/24 22:30:52;;;;;;;36.57;18.40;;;;;;;1.03;94.57;97688.97;10410889;28;20311;-57
2022/03/24 22:35:52;;;;;;;32.23;15.70;;;;;;;1.02;95.14;97689.84;10411722;28;20217;-52
2022/03/24 22:40:53;;;;;;;33.33;16.77;;;;;;;0.91;95.85;97681.81;10411454;28;20209;-53
2022/03/24 22:45:53;;;;;;;37.83;20.60;;;;;;;0.87;95.99;97682.84;10411325;28;20200;-52
2022/03/24 22:50:53;;;;;;;39.23;22.07;;;;;;;0.93;96.27;97679.97;10410187;28;20223;-54
2022/03/24 22:55:54;;;;;;;39.17;21.17;;;;;;;0.92;96.39;97683.47;10411199;28;20206;-55
2022/03/24 23:00:57;;;;;;;40.87;23.03;;;;;;;0.74;96.89;97680.00;10410487;28;20242;-53
2022/03/24 23:05:57;;;;;;;23.07;13.37;;;;;;;0.73;98.30;97680.09;10410358;28;20246;-51